Relevés horaires St-Hubert (Belgique)


Relevés horaires à St-Hubert - Mardi 03 Avr. 2018
Heure UTC1 Température [°C] Vent [km/h] Hum. [%] Pres.4 [hPa] Visi. [Km] Nébu. [octa] Préc.5 [mm] Cond.
2m. Res. Ros. Dir.2 Vit. Moy. Raf.3
23:00 5.9 4.3 4.8 S 7.4 7.4 13.0 93 1004.1(1.6/3h) 35 1/8 -- --
22:00 6.7 5.8 5.3 SO 5.6 13.0 24.1 91 1003.7(1.5/3h) 45 0/8 -- --
21:00 7.3 5.2 6.1 SSO 11.1 13.0 22.2 92 1002.6(1.2/3h) 45 0/8 -- --
21:00 7.3 5.2 6.1 SSO 11.1 13.0 22.2 92 1002.6(1.2/3h) 45 0/8 -- --
20:00 7.7 6.4 6.0 S 7.4 13.0 22.2 89 1001.9(0.0/3h) 45 0/8 -- Ciel clair
19:00 9.3 7.9 5.3 S 9.3 9.3 20.4 76 1001.5(-0.5/3h) 35 3/8 -- NA
19:00 9.3 7.9 5.3 S 9.3 9.3 20.4 76 1001.5(-0.5/3h) 35 3/8 -- NA
18:00 8.7 7.6 5.6 SSE 7.4 11.1 22.2 81 1001(-1.4/3h) 45 0/8 0/12h
Ciel clair
17:00 8.9 7.9 6.4 SSE 7.4 7.4 14.8 84 1001.6(-1.4/3h) 35 0/8 -- Ciel clair
16:00 8.0 6.8 6.7 S 7.4 9.3 16.7 91 1002.3(-1.0/3h) 23 0/8 -- Ciel clair
16:00 8.0 6.8 6.7 S 7.4 9.3 16.7 91 1002.3(-1.0/3h) 23 0/8 -- Ciel clair
15:00 8.3 7.1 6.6 S 7.4 11.1 22.2 89 1002.6(-0.8/3h) 35 0/8 -- Ciel clair
14:00 8.8 7.3 6.7 S 9.3 11.1 20.4 87 1003.1(-0.3/3h) 27 0/8 -- NA
13:00 9.0 8 6.6 S 7.4 11.1 22.2 85 1003.2(0.0/3h) 23 0/8 -- NA
12:00 10.9 9.5 4.1 SSO 11.1 11.1 22.2 63 1002.9(0.4/3h) 22 0/8 0/6h
Il y a de la pluie faible et continue à la station au moment de l'observation
11:00 11.3 10 4.3 SSO 11.1 11.1 20.4 62 1002.8(0.8/3h) 30 0/8 -- --
10:00 10.8 9.7 3.3 SSO 9.3 9.3 18.5 60 1002.7(0.4/3h) 40 0/8 -- --
09:00 9.3 7.9 3.4 S 9.3 9.3 18.5 67 1002.8(0.6/3h) 40 0/8 -- Ciel clair
08:00 8.0 6.4 2.8 SSO 9.3 9.3 16.7 70 1002.7(0.2/3h) 45 0/8 -- --
07:00 6.4 4.5 2.5 S 9.3 9.3 18.5 76 1003.4(0.5/3h) 25 0/8 -- Il y a de la pluie faible et continue à la station au moment de l'observation
06:00 6.1 4.6 3.8 S 7.4 9.3 16.7 85 1003(0.0/3h) 45 1/8 0/12h
Ciel clair
05:00 6.5 5 5.2 S 7.4 9.3 14.8 91 1002.9(-0.2/3h) 40 8/8 -- --
04:00 6.2 4.2 5.2 S 9.3 9.3 14.8 93 1002.9(-0.3/3h) 22 0/8 -- Ciel clair
03:00 6.3 4.4 5.1 S 9.3 9.3 16.7 92 1002.9(-0.2/3h) 14 1/8 -- Ciel clair

1 Coordinated Universal Time. Actuellement il est 12:00 locale et 10:00 UTC.

2 Le vent souffle depuis la direction indiquée vers la direction oposée.

3 Les rafales max. sont disponible 40 min après l'heure du relevé.

4 Pour les stations d'altitude (plus de 600m) le géopotentiel du niveau le plus proche de la pression obligatoire est indiqué.

5 Les stations disposant d'un diffuseur peuvent indiquer "trace". Cela signifie que des précipitations ont touchés le sol mais que la quantité est inférieure à 0.1 mm.

Récapitulatif de la journée
Température [°C] Vent [km/h] Ensoleillement4 [h] Precipitations totale5 [mm] Pression [Hpa]
Min1 Max.2 Moy.3 Max. Min Max.
6.0 12.0 10.2 24.1 0 h 0 min 0 1001.0 1004.1

1 Température minimale relevée entre 18:00 UTC la veille et 18:00 UTC le jour donné.

2 Température maximale relevée entre 06:00 UTC le jour donné et 06:00 UTC le lendemain.

3 Vent moyen de la journée basé sur les relevés horaires.

4 Ensoleillement en heures relevé entre 06:00 UTC la veille et 06:00 UTC le jour donné.

5 Précipitations totales tombées entre 06:00 UTC la jour donné et 06:00 UTC le lendemain.

Graphiques horaires